ADDS METAR Data INFO

IDs: Format: Raw Decoded Include TAF

Data at: 1426 UTC 23 Oct 2014

Region: TOP
KATL 231352Z 27003KT 10SM FEW250 10/06 A3015 RMK AO2 SLP210 T01000061

KBOS 231410Z 01022G32KT 10SM BKN014 BKN025 11/10 A2962 RMK AO2 PK WND 36035/1356

KBWI 231354Z 32011G20KT 10SM SCT034 BKN075 BKN180 13/07 A2986 RMK AO2 SLP112 T01330067

KCLE 231351Z 33005KT 10SM SCT013 11/08 A3023 RMK AO2 SLP239 T01060078

KCLT 231352Z 33007KT 10SM CLR 11/04 A3010 RMK AO2 SLP191 T01110039 CHINO RWY 36

KCVG 231352Z 00000KT 8SM FEW250 09/05 A3025 RMK AO2 SLP244 T00940050

KDCA 231352Z 31010G19KT 10SM SCT037 14/06 A2990 RMK AO2 SLP126 T01440056

KDEN 231353Z 10004KT 10SM FEW100 FEW180 SCT250 07/01 A3017 RMK AO2 SLP183 ACSL DSNT SW-NW T00720011

KDFW 231353Z 13004KT 10SM BKN070 OVC100 18/13 A3015 RMK AO2 SLP202 T01780133

KDTW 231353Z 00000KT 10SM FEW220 07/03 A3026 RMK AO2 SLP250 T00720033

KEWR 231251Z 35015G21KT 8SM -RA BKN013 BKN021 OVC080 11/09 A2972 RMK AO2 SLP063 BKN013 V SCT P0010 T01060089 $

KFLL 231353Z 07009KT 10SM FEW012 FEW025 SCT055 26/23 A2993 RMK AO2 RAB21E47 SLP136 P0001 T02560228

KIAD 231352Z 32016G22KT 10SM FEW040 SCT140 13/06 A2993 RMK AO2 PK WND 31027/1329 SLP135 T01280056

KIAH 231353Z 07006KT 10SM OVC180 16/12 A3011 RMK AO2 SLP196 T01610122

KJFK 231351Z 35018G24KT 10SM -RA BKN021 BKN027 OVC070 11/08 A2969 RMK AO2 PK WND 34027/1339 SLP054 P0002 T01060078

KLAS 231356Z 20005KT 10SM SCT250 17/M01 A3002 RMK AO2 SLP150 T01721006

KLAX 231353Z 00000KT 10SM FEW250 17/14 A2995 RMK AO2 SLP140 T01720139

KLGA 231351Z 34013G20KT 10SM BKN017 OVC022 11/08 A2970 RMK AO2 PK WND 34026/1340 RAE33 SLP057 P0002 T01110078

KMCO 231353Z 04009KT 10SM FEW250 23/14 A3001 RMK AO2 SLP162 T02280144

KMDW 231353Z 20006KT 9SM FEW250 BKN300 07/04 A3023 RMK AO2 SLP241 T00720044

KMEM 231354Z 10004KT 10SM FEW150 BKN250 11/06 A3021 RMK AO2 SLP229 T01110061

KMIA 231353Z 04004KT 10SM SCT020CB BKN040 OVC140 25/23 A2994 RMK AO2 RAB1258E10B27E47 SLP139 CB NE MOV W P0000 T02500228

KMSP 231353Z VRB04KT 7SM OVC010 12/11 A3000 RMK AO2 SLP162 T01170106

KORD 231351Z 19006KT 9SM FEW190 BKN250 06/04 A3022 RMK AO2 SLP236 T00610039 $

KPDX 231353Z 11009KT 10SM FEW008 SCT040 OVC095 12/12 A2977 RMK AO2 RAE10B24E41 SLP080 P0001 T01220122

KPHL 231354Z 33016G24KT 10SM FEW015 BKN050 OVC070 11/08 A2978 RMK AO2 RAB03E21 SLP085 T01110078 PNO $

KPHX 231351Z 11003KT 10SM FEW250 21/10 A2998 RMK AO2 SLP139 T02060100

KPIT 231351Z 32011KT 10SM SCT015 09/06 A3014 RMK AO2 SLP218 T00940061

KSAN 231351Z 00000KT 10SM BCFG FEW001 SCT005 SCT200 17/12 A2996 RMK AO2 SLP144 VIS W 1/2 T01670122

KSEA 231353Z 16011KT 10SM -RA OVC055 11/09 A2976 RMK AO2 SLP083 P0003 T01060089

KSFO 231356Z 16003KT 10SM FEW017 BKN180 17/16 A3004 RMK AO2 SLP172 T01720156 $

KSLC 231353Z 12009KT 10SM SCT170 BKN240 08/01 A3012 RMK AO2 SLP183 ACSL DSNT NE AND SE T00830011

KSTL 231351Z 19005KT 10SM FEW150 SCT200 BKN250 11/05 A3021 RMK AO2 SLP232 VIRGA W T01110050

KTPA 231353Z VRB05G16KT 10SM FEW035 FEW220 21/13 A3001 RMK AO2 SLP161 T02110128


Page loaded:  14:26 UTC  |   07:26 AM Pacific  |   08:26 AM Mountain  |   09:26 AM Central  |   10:26 AM Eastern

 

ADVISORIES

FORECASTS

FORECASTS

OBSERVATIONS

USER TOOLS

ABOUT US